Pagrindinis puslapis
METAR-TAF:

METAR-TAF

Oro uostai :

Comanche National Grassland

Springfield, Koloradas, Jungtinės Amerikos Valstijos

platuma: 37-17N, ilguma: 102-37W, Aukštis: 1335 m

Dabartinis oras

Ataskaita buvo paskelbta 1 valandą ir 5 minutes, ne 15:56 UTC
Ramus vėjas
Temperatūra 6°C
Drėgmė 75%
Slėgis 1018 hPa

METAR: KSPD 071556Z AUTO 00000KT 06/02 A3007 RMK AO1 SLP182 T00560017

Laikas: 10:01 (17:01 UTC)


TAF: trūkstamas

Orai ataskaitas ir orų prognozės (METAR, TAF).

turimą stotys yra geltonos ir raudonos taškus žemėlapyje.

Perkelti pele per norėdami pamatyti stoties vardą.

Tada spustelėkite, norėdami matyti oro stebėjimo ir prognozės.

Norėdami pakeisti žemėlapį: spustelėkite ant žalios mygtukų su juodo kryžiaus žemyn,; žalią mygtuką su brūkšneliu, jei norite nutolinti; arba žalių rodyklių gretimoms žemėlapius.


METAR-TAF: